Time;durP1;ratioP1;P1;durP2;ratioP2;P2;SDS_P1;SDS_P2;PMS_P1;PMS_P2;Temp;Humidity;BMP_temperature;BMP_pressure;BME280_temperature;BME280_humidity;BME280_pressure;Samples;Min_cycle;Max_cycle;Signal;HPM_P1;HPM_P2
2021/03/13 00:01:34;;;;;;;;;;;23.80;38.10;;;;;;1576758;74;1150;-65
2021/03/13 00:03:36;;;;;;;;;;;23.80;38.10;;;;;;1580516;74;1930;-65
2021/03/13 00:05:39;;;;;;;;;;;23.80;38.00;;;;;;1587638;74;871;-65
2021/03/13 00:07:40;;;;;;;;;;;23.80;38.10;;;;;;1570028;74;722;-65
2021/03/13 00:09:45;;;;;;;;;;;23.70;38.10;;;;;;1579771;74;741;-65
2021/03/13 00:11:46;;;;;;;;;;;23.80;38.10;;;;;;1591003;74;1618;-67
2021/03/13 00:13:48;;;;;;;;;;;23.80;38.30;;;;;;1591107;74;803;-68
2021/03/13 00:15:50;;;;;;;;;;;23.80;38.50;;;;;;1567224;74;820;-65
2021/03/13 00:17:53;;;;;;;;;;;23.80;38.50;;;;;;1553779;75;782;-65
2021/03/13 00:19:55;;;;;;;;;;;23.70;38.40;;;;;;1574803;74;841;-65
2021/03/13 00:21:57;;;;;;;;;;;23.70;38.40;;;;;;1572452;74;1086;-65
2021/03/13 00:23:59;;;;;;;;;;;23.80;38.30;;;;;;1581078;74;1934;-65
2021/03/13 00:26:01;;;;;;;;;;;23.70;38.20;;;;;;1586736;73;775;-66
2021/03/13 00:28:02;;;;;;;;;;;23.80;38.20;;;;;;1593601;74;737;-65
2021/03/13 00:30:05;;;;;;;;;;;23.80;38.30;;;;;;1590604;74;723;-65
2021/03/13 00:32:07;;;;;;;;;;;23.80;38.10;;;;;;1589753;74;1124;-65
2021/03/13 00:34:09;;;;;;;;;;;23.80;38.10;;;;;;1590268;74;822;-66
2021/03/13 00:36:11;;;;;;;;;;;23.80;38.10;;;;;;1594718;74;795;-64
2021/03/13 00:38:13;;;;;;;;;;;23.80;38.20;;;;;;1598742;73;748;-64
2021/03/13 00:40:16;;;;;;;;;;;23.80;38.00;;;;;;1570064;74;1149;-64
2021/03/13 00:42:17;;;;;;;;;;;23.90;38.30;;;;;;1582052;74;750;-65
2021/03/13 00:44:19;;;;;;;;;;;23.70;38.10;;;;;;1576787;74;1938;-64
2021/03/13 00:46:21;;;;;;;;;;;23.80;38.00;;;;;;1594439;74;819;-64
2021/03/13 00:48:23;;;;;;;;;;;23.80;38.00;;;;;;1592536;73;745;-63
2021/03/13 00:50:25;;;;;;;;;;;23.80;38.00;;;;;;1595217;74;1164;-63
2021/03/13 00:52:27;;;;;;;;;;;23.80;37.90;;;;;;1587994;73;770;-63
2021/03/13 00:54:29;;;;;;;;;;;23.80;38.10;;;;;;1579672;73;770;-65
2021/03/13 00:56:31;;;;;;;;;;;23.80;38.20;;;;;;1595275;74;766;-64
2021/03/13 00:58:33;;;;;;;;;;;23.70;38.10;;;;;;1581844;74;706;-64
2021/03/13 01:00:35;;;;;;;;;;;23.70;38.20;;;;;;1581796;74;1125;-66
2021/03/13 01:02:37;;;;;;;;;;;23.70;38.20;;;;;;1594074;74;1921;-64
2021/03/13 01:04:39;;;;;;;;;;;23.70;38.30;;;;;;1595276;74;740;-67
2021/03/13 01:06:41;;;;;;;;;;;23.80;38.40;;;;;;1592619;74;773;-65
2021/03/13 01:08:43;;;;;;;;;;;23.70;38.60;;;;;;1584607;74;781;-65
2021/03/13 01:10:46;;;;;;;;;;;23.60;38.50;;;;;;1588944;73;1132;-66
2021/03/13 01:12:47;;;;;;;;;;;23.70;38.70;;;;;;1594282;74;799;-64
2021/03/13 01:14:49;;;;;;;;;;;23.70;38.60;;;;;;1586559;74;722;-67
2021/03/13 01:16:51;;;;;;;;;;;23.70;38.80;;;;;;1587533;74;797;-64
2021/03/13 01:18:53;;;;;;;;;;;23.70;38.60;;;;;;1583839;74;819;-65
2021/03/13 01:20:55;;;;;;;;;;;23.70;38.60;;;;;;1591308;74;1131;-64
2021/03/13 01:22:57;;;;;;;;;;;23.80;38.40;;;;;;1596407;73;1956;-64
2021/03/13 01:24:59;;;;;;;;;;;23.80;38.40;;;;;;1581562;74;795;-65
2021/03/13 01:27:00;;;;;;;;;;;23.80;38.40;;;;;;1589482;74;823;-65
2021/03/13 01:29:03;;;;;;;;;;;23.70;38.40;;;;;;1591748;74;706;-65
2021/03/13 01:31:04;;;;;;;;;;;23.80;38.50;;;;;;1586681;73;1103;-63
2021/03/13 01:33:06;;;;;;;;;;;23.80;38.60;;;;;;1592316;74;804;-65
2021/03/13 01:35:08;;;;;;;;;;;23.80;38.70;;;;;;1588602;74;751;-63
2021/03/13 01:37:12;;;;;;;;;;;23.80;38.70;;;;;;1591986;74;708;-64
2021/03/13 01:39:14;;;;;;;;;;;23.70;38.80;;;;;;1595343;74;763;-64
2021/03/13 01:41:16;;;;;;;;;;;23.80;38.70;;;;;;1591403;73;1135;-65
2021/03/13 01:43:18;;;;;;;;;;;23.80;38.70;;;;;;1589650;73;1958;-64
2021/03/13 01:45:21;;;;;;;;;;;23.70;38.70;;;;;;1580365;74;684;-64
2021/03/13 01:47:23;;;;;;;;;;;23.70;38.60;;;;;;1585384;74;870;-64
2021/03/13 01:49:29;;;;;;;;;;;23.70;38.60;;;;;;1579037;74;715;-66
2021/03/13 01:51:31;;;;;;;;;;;23.70;38.70;;;;;;1593948;74;1174;-63
2021/03/13 01:53:33;;;;;;;;;;;23.60;38.80;;;;;;1580476;74;870;-64
2021/03/13 01:55:35;;;;;;;;;;;23.60;38.70;;;;;;1587324;74;744;-64
2021/03/13 01:57:37;;;;;;;;;;;23.60;38.80;;;;;;1575929;74;793;-63
2021/03/13 01:59:39;;;;;;;;;;;23.60;38.70;;;;;;1578222;74;740;-64
2021/03/13 02:01:40;;;;;;;;;;;23.50;38.90;;;;;;1595955;74;1091;-64
2021/03/13 02:03:42;;;;;;;;;;;23.40;38.90;;;;;;1593312;74;1935;-64
2021/03/13 02:05:45;;;;;;;;;;;23.50;39.00;;;;;;1594479;74;718;-66
2021/03/13 02:07:52;;;;;;;;;;;23.60;38.70;;;;;;1588237;74;794;-64
2021/03/13 02:09:58;;;;;;;;;;;23.60;38.70;;;;;;1593821;74;706;-64
2021/03/13 02:12:02;;;;;;;;;;;23.60;38.60;;;;;;1594357;73;1079;-64
2021/03/13 02:14:08;;;;;;;;;;;23.60;38.50;;;;;;1582297;73;1791;-64
2021/03/13 02:16:17;;;;;;;;;;;23.70;38.50;;;;;;1596942;73;788;-63
2021/03/13 02:18:21;;;;;;;;;;;23.60;38.30;;;;;;1584098;74;792;-64
2021/03/13 02:20:41;;;;;;;;;;;23.60;38.40;;;;;;1589958;73;1835;-63
2021/03/13 02:22:43;;;;;;;;;;;23.70;38.40;;;;;;1591406;74;778;-64
2021/03/13 02:25:05;;;;;;;;;;;23.70;38.50;;;;;;1586099;74;1952;-63
2021/03/13 02:27:08;;;;;;;;;;;23.70;38.60;;;;;;1592584;74;784;-63
2021/03/13 02:29:18;;;;;;;;;;;23.70;38.50;;;;;;1586747;74;801;-64
2021/03/13 02:31:19;;;;;;;;;;;23.60;38.40;;;;;;1582369;74;1158;-65
2021/03/13 02:33:25;;;;;;;;;;;23.70;38.50;;;;;;1602068;73;1049;-64
2021/03/13 02:35:28;;;;;;;;;;;23.70;38.60;;;;;;1592889;74;821;-64
2021/03/13 02:37:31;;;;;;;;;;;23.70;38.60;;;;;;1594601;74;769;-64
2021/03/13 02:39:33;;;;;;;;;;;23.60;38.60;;;;;;1587853;74;762;-65
2021/03/13 02:41:37;;;;;;;;;;;23.60;38.70;;;;;;1587513;74;1130;-64
2021/03/13 02:43:39;;;;;;;;;;;23.60;38.60;;;;;;1586108;73;1941;-66
2021/03/13 02:45:45;;;;;;;;;;;23.60;38.60;;;;;;1583416;74;783;-66
2021/03/13 02:47:47;;;;;;;;;;;23.60;38.50;;;;;;1593133;74;1828;-64
2021/03/13 02:49:49;;;;;;;;;;;23.60;38.80;;;;;;1592982;74;778;-65
2021/03/13 02:51:51;;;;;;;;;;;23.60;38.70;;;;;;1604553;73;1123;-64
2021/03/13 02:53:53;;;;;;;;;;;23.60;38.90;;;;;;1590864;74;757;-62
2021/03/13 02:55:55;;;;;;;;;;;23.70;39.10;;;;;;1586153;74;809;-66
2021/03/13 02:57:58;;;;;;;;;;;23.60;38.90;;;;;;1591215;74;795;-65
2021/03/13 03:00:00;;;;;;;;;;;23.60;39.00;;;;;;1593858;74;739;-65
2021/03/13 03:02:01;;;;;;;;;;;23.50;39.10;;;;;;1594302;74;1068;-66
2021/03/13 03:04:03;;;;;;;;;;;23.60;39.20;;;;;;1582638;74;1935;-64
2021/03/13 03:06:06;;;;;;;;;;;23.60;39.00;;;;;;1593513;74;832;-65
2021/03/13 03:08:08;;;;;;;;;;;23.70;39.10;;;;;;1592518;74;798;-64
2021/03/13 03:10:10;;;;;;;;;;;23.70;39.00;;;;;;1584624;74;1139;-64
2021/03/13 03:12:12;;;;;;;;;;;23.70;38.90;;;;;;1593248;74;702;-65
2021/03/13 03:14:15;;;;;;;;;;;23.70;38.90;;;;;;1592396;74;801;-64
2021/03/13 03:16:17;;;;;;;;;;;23.70;38.90;;;;;;1579164;74;741;-65
2021/03/13 03:18:18;;;;;;;;;;;23.70;38.90;;;;;;1595581;74;776;-64
2021/03/13 03:22:47;;;;;;;;;;;23.70;39.00;;;;;;1599173;73;1231;-57
2021/03/13 03:24:49;;;;;;;;;;;23.60;38.60;;;;;;1598006;73;1946;-57
2021/03/13 03:26:50;;;;;;;;;;;23.70;38.70;;;;;;1596191;73;732;-56
2021/03/13 03:28:52;;;;;;;;;;;23.70;38.70;;;;;;1598897;73;777;-57
2021/03/13 03:30:54;;;;;;;;;;;23.70;38.80;;;;;;1586489;73;802;-57
2021/03/13 03:32:57;;;;;;;;;;;23.70;38.80;;;;;;1602550;74;1083;-57
2021/03/13 03:34:59;;;;;;;;;;;23.70;38.90;;;;;;1603831;73;682;-57
2021/03/13 03:37:01;;;;;;;;;;;23.60;38.70;;;;;;1599773;73;772;-57
2021/03/13 03:39:03;;;;;;;;;;;23.60;38.80;;;;;;1601330;73;789;-57
2021/03/13 03:41:05;;;;;;;;;;;23.50;38.90;;;;;;1596722;73;839;-57
2021/03/13 03:43:14;;;;;;;;;;;23.50;39.10;;;;;;1594572;73;782;-57
2021/03/13 03:45:17;;;;;;;;;;;23.40;39.20;;;;;;1605432;73;1953;-57
2021/03/13 03:47:19;;;;;;;;;;;23.40;39.40;;;;;;1590166;73;746;-57
2021/03/13 03:49:21;;;;;;;;;;;23.30;39.50;;;;;;1588898;73;763;-57
2021/03/13 03:51:25;;;;;;;;;;;23.20;39.50;;;;;;1583734;73;1144;-57
2021/03/13 03:53:28;;;;;;;;;;;23.20;39.60;;;;;;1597060;73;659;-57
2021/03/13 03:55:30;;;;;;;;;;;23.30;39.70;;;;;;1592349;73;1821;-57
2021/03/13 03:57:32;;;;;;;;;;;23.20;39.70;;;;;;1594344;73;762;-57
2021/03/13 03:59:34;;;;;;;;;;;23.20;39.70;;;;;;1575917;73;836;-57
2021/03/13 04:01:36;;;;;;;;;;;23.20;39.70;;;;;;1598887;73;1202;-58
2021/03/13 04:03:50;;;;;;;;;;;23.20;40.00;;;;;;1597217;73;1945;-57
2021/03/13 04:05:52;;;;;;;;;;;23.20;39.90;;;;;;1598550;73;932;-57
2021/03/13 04:07:54;;;;;;;;;;;23.20;39.90;;;;;;1589510;73;833;-57
2021/03/13 04:09:56;;;;;;;;;;;23.20;40.00;;;;;;1599575;73;791;-57
2021/03/13 04:11:58;;;;;;;;;;;23.20;40.00;;;;;;1598387;73;1073;-57
2021/03/13 04:14:00;;;;;;;;;;;23.20;40.00;;;;;;1591414;73;808;-57
2021/03/13 04:16:01;;;;;;;;;;;23.20;39.90;;;;;;1601827;73;759;-57
2021/03/13 04:18:03;;;;;;;;;;;23.20;39.90;;;;;;1590760;73;811;-57
2021/03/13 04:20:06;;;;;;;;;;;23.30;39.90;;;;;;1601247;73;739;-57
2021/03/13 04:22:08;;;;;;;;;;;23.30;40.00;;;;;;1601019;73;1127;-57
2021/03/13 04:24:13;;;;;;;;;;;23.30;39.80;;;;;;1585216;73;1940;-57
2021/03/13 04:26:16;;;;;;;;;;;23.30;39.70;;;;;;1597270;73;750;-57
2021/03/13 04:28:21;;;;;;;;;;;23.30;39.60;;;;;;1598077;73;1877;-57
2021/03/13 04:30:23;;;;;;;;;;;23.40;39.60;;;;;;1591548;73;683;-57
2021/03/13 04:32:25;;;;;;;;;;;23.30;39.60;;;;;;1588421;73;1158;-57
2021/03/13 04:34:27;;;;;;;;;;;23.30;39.50;;;;;;1600986;73;729;-57
2021/03/13 04:36:30;;;;;;;;;;;23.40;39.40;;;;;;1585822;73;732;-56
2021/03/13 04:38:32;;;;;;;;;;;23.40;39.40;;;;;;1589056;73;790;-57
2021/03/13 04:40:34;;;;;;;;;;;23.30;39.40;;;;;;1592297;73;768;-57
2021/03/13 04:42:36;;;;;;;;;;;23.30;39.50;;;;;;1601326;73;1125;-57
2021/03/13 04:44:37;;;;;;;;;;;23.30;39.60;;;;;;1592873;73;1944;-58
2021/03/13 04:46:39;;;;;;;;;;;23.30;39.60;;;;;;1592405;73;786;-56
2021/03/13 04:48:41;;;;;;;;;;;23.30;39.50;;;;;;1588707;73;772;-57
2021/03/13 04:50:43;;;;;;;;;;;23.40;39.60;;;;;;1587066;73;797;-57
2021/03/13 04:52:45;;;;;;;;;;;23.40;39.50;;;;;;1595127;73;1105;-57
2021/03/13 04:54:47;;;;;;;;;;;23.30;39.50;;;;;;1582875;73;911;-57
2021/03/13 04:56:49;;;;;;;;;;;23.30;39.60;;;;;;1600654;73;662;-58
2021/03/13 04:58:51;;;;;;;;;;;23.40;39.50;;;;;;1588363;73;668;-57
2021/03/13 05:00:53;;;;;;;;;;;23.30;39.80;;;;;;1585331;73;801;-58
2021/03/13 05:02:55;;;;;;;;;;;23.30;39.80;;;;;;1594884;73;1120;-57
2021/03/13 05:04:57;;;;;;;;;;;23.30;39.70;;;;;;1589831;73;1957;-57
2021/03/13 05:06:58;;;;;;;;;;;23.40;39.70;;;;;;1583403;73;822;-56
2021/03/13 05:09:00;;;;;;;;;;;23.40;39.70;;;;;;1610849;73;803;-57
2021/03/13 05:11:02;;;;;;;;;;;23.40;39.70;;;;;;1585186;73;705;-57
2021/03/13 05:13:04;;;;;;;;;;;23.40;39.60;;;;;;1598787;73;1106;-56
2021/03/13 05:15:06;;;;;;;;;;;23.40;39.70;;;;;;1599323;73;671;-57
2021/03/13 05:17:08;;;;;;;;;;;23.40;39.60;;;;;;1606055;72;712;-57
2021/03/13 05:19:10;;;;;;;;;;;23.40;39.50;;;;;;1602618;73;773;-56
2021/03/13 05:21:12;;;;;;;;;;;23.40;39.60;;;;;;1598376;73;1138;-57
2021/03/13 05:23:14;;;;;;;;;;;23.40;39.50;;;;;;1602913;73;802;-57
2021/03/13 05:25:17;;;;;;;;;;;23.40;39.50;;;;;;1601679;73;1920;-57
2021/03/13 05:27:19;;;;;;;;;;;23.50;39.70;;;;;;1599073;73;893;-57
2021/03/13 05:29:20;;;;;;;;;;;23.30;39.60;;;;;;1594666;73;643;-57
2021/03/13 05:31:23;;;;;;;;;;;23.40;39.50;;;;;;1604467;73;1143;-57
2021/03/13 05:33:25;;;;;;;;;;;23.50;39.70;;;;;;1597289;73;842;-57
2021/03/13 05:35:27;;;;;;;;;;;23.40;39.50;;;;;;1603227;73;775;-57
2021/03/13 05:37:30;;;;;;;;;;;23.50;39.60;;;;;;1601427;73;776;-57
2021/03/13 05:39:32;;;;;;;;;;;23.50;39.50;;;;;;1598789;73;688;-57
2021/03/13 05:41:33;;;;;;;;;;;23.40;39.70;;;;;;1596672;73;1119;-57
2021/03/13 05:43:35;;;;;;;;;;;23.50;39.80;;;;;;1595386;73;664;-57
2021/03/13 05:45:37;;;;;;;;;;;23.50;39.80;;;;;;1592323;73;1936;-57
2021/03/13 05:47:39;;;;;;;;;;;23.50;39.80;;;;;;1602847;73;768;-57
2021/03/13 05:49:42;;;;;;;;;;;23.50;39.90;;;;;;1595768;73;809;-58
2021/03/13 05:51:44;;;;;;;;;;;23.40;39.70;;;;;;1597592;73;1131;-53
2021/03/13 05:53:46;;;;;;;;;;;23.50;40.00;;;;;;1596416;73;780;-54
2021/03/13 05:55:47;;;;;;;;;;;23.50;39.80;;;;;;1600782;73;790;-57
2021/03/13 05:57:50;;;;;;;;;;;23.50;39.90;;;;;;1596510;73;772;-57
2021/03/13 05:59:52;;;;;;;;;;;23.50;39.80;;;;;;1601280;73;738;-57
2021/03/13 06:01:54;;;;;;;;;;;23.50;39.70;;;;;;1597332;73;1172;-56
2021/03/13 06:03:56;;;;;;;;;;;23.50;39.70;;;;;;1606330;73;799;-53
2021/03/13 06:05:58;;;;;;;;;;;23.50;39.70;;;;;;1602959;73;1930;-57
2021/03/13 06:08:00;;;;;;;;;;;23.50;39.80;;;;;;1589281;73;757;-57
2021/03/13 06:10:02;;;;;;;;;;;23.50;40.00;;;;;;1595363;73;779;-57
2021/03/13 06:12:04;;;;;;;;;;;23.50;39.80;;;;;;1596983;73;1162;-56
2021/03/13 06:14:06;;;;;;;;;;;23.50;39.80;;;;;;1566028;74;725;-56
2021/03/13 06:16:08;;;;;;;;;;;23.50;39.70;;;;;;1586255;73;753;-57
2021/03/13 06:18:10;;;;;;;;;;;23.50;39.50;;;;;;1594095;73;726;-56
2021/03/13 06:20:13;;;;;;;;;;;23.60;39.60;;;;;;1596195;73;817;-56
2021/03/13 06:22:33;;;;;;;;;;;23.60;39.40;;;;;;1597329;73;1123;-57
2021/03/13 06:24:34;;;;;;;;;;;23.50;39.40;;;;;;1593921;74;1981;-57
2021/03/13 06:26:52;;;;;;;;;;;23.60;39.60;;;;;;1595502;73;867;-56
2021/03/13 06:28:55;;;;;;;;;;;23.70;39.70;;;;;;1595778;73;812;-57
2021/03/13 06:30:58;;;;;;;;;;;23.70;39.40;;;;;;1587298;73;744;-57
2021/03/13 06:33:00;;;;;;;;;;;23.70;39.00;;;;;;1593304;73;1868;-57
2021/03/13 06:35:18;;;;;;;;;;;23.70;38.60;;;;;;1598281;73;858;-56
2021/03/13 06:37:26;;;;;;;;;;;23.80;38.30;;;;;;1604288;73;726;-57
2021/03/13 06:39:38;;;;;;;;;;;23.70;38.10;;;;;;1589346;73;791;-57
2021/03/13 06:41:40;;;;;;;;;;;23.80;37.80;;;;;;1589237;73;1073;-57
2021/03/13 06:43:42;;;;;;;;;;;23.60;37.60;;;;;;1592398;73;810;-57
2021/03/13 06:45:52;;;;;;;;;;;23.60;37.70;;;;;;1596708;73;1934;-57
2021/03/13 06:47:53;;;;;;;;;;;23.60;37.60;;;;;;1589760;73;1691;-57
2021/03/13 06:50:11;;;;;;;;;;;23.60;37.70;;;;;;1605833;73;826;-57
2021/03/13 06:52:14;;;;;;;;;;;23.50;37.70;;;;;;1601593;73;1128;-57
2021/03/13 06:54:17;;;;;;;;;;;23.50;37.80;;;;;;1589415;73;1858;-56
2021/03/13 06:56:19;;;;;;;;;;;23.70;38.10;;;;;;1598119;73;796;-58
2021/03/13 06:58:21;;;;;;;;;;;23.80;37.70;;;;;;1596687;73;786;-57
2021/03/13 07:00:28;;;;;;;;;;;23.90;37.90;;;;;;1577110;74;1223;-57
2021/03/13 07:02:30;;;;;;;;;;;24.10;37.50;;;;;;1603370;73;1210;-56
2021/03/13 07:04:42;;;;;;;;;;;24.30;37.20;;;;;;1589340;73;757;-57
2021/03/13 07:06:44;;;;;;;;;;;24.30;36.80;;;;;;1599488;73;839;-57
2021/03/13 07:08:47;;;;;;;;;;;24.40;36.70;;;;;;1595658;73;716;-57
2021/03/13 07:10:49;;;;;;;;;;;24.50;36.50;;;;;;1596627;73;723;-56
2021/03/13 07:12:51;;;;;;;;;;;24.50;36.20;;;;;;1597817;73;1096;-57
2021/03/13 07:14:53;;;;;;;;;;;24.50;36.00;;;;;;1597725;73;744;-56
2021/03/13 07:16:55;;;;;;;;;;;24.60;35.70;;;;;;1601159;73;746;-57
2021/03/13 07:19:01;;;;;;;;;;;24.60;35.60;;;;;;1601200;73;1008;-57
2021/03/13 07:21:03;;;;;;;;;;;24.70;35.60;;;;;;1598385;73;936;-57
2021/03/13 07:23:05;;;;;;;;;;;24.80;35.40;;;;;;1599479;73;1239;-58
2021/03/13 07:25:08;;;;;;;;;;;24.80;35.30;;;;;;1594024;73;1929;-57
2021/03/13 07:27:10;;;;;;;;;;;24.80;35.30;;;;;;1596517;73;677;-56
2021/03/13 07:29:13;;;;;;;;;;;24.80;35.20;;;;;;1600847;73;748;-57
2021/03/13 07:31:15;;;;;;;;;;;24.80;35.20;;;;;;1604293;73;1122;-57
2021/03/13 07:33:17;;;;;;;;;;;24.80;35.20;;;;;;1598848;73;881;-57
2021/03/13 07:35:20;;;;;;;;;;;24.90;35.20;;;;;;1603946;73;757;-56
2021/03/13 07:37:22;;;;;;;;;;;24.80;35.10;;;;;;1595625;73;827;-57
2021/03/13 07:39:29;;;;;;;;;;;24.90;35.20;;;;;;1597839;73;762;-58
2021/03/13 07:41:31;;;;;;;;;;;24.80;35.10;;;;;;1592218;73;1096;-57
2021/03/13 07:43:33;;;;;;;;;;;24.80;35.50;;;;;;1578971;73;779;-57
2021/03/13 07:45:35;;;;;;;;;;;24.80;35.50;;;;;;1568933;74;1923;-57
2021/03/13 07:47:37;;;;;;;;;;;24.90;35.50;;;;;;1587426;73;948;-57
2021/03/13 07:49:39;;;;;;;;;;;24.90;35.70;;;;;;1580643;73;794;-57
2021/03/13 07:51:41;;;;;;;;;;;24.90;35.30;;;;;;1584535;73;1143;-57
2021/03/13 07:53:43;;;;;;;;;;;25.00;35.20;;;;;;1584629;73;819;-57
2021/03/13 07:55:47;;;;;;;;;;;24.90;34.70;;;;;;1584125;73;822;-57
2021/03/13 07:57:49;;;;;;;;;;;25.00;34.40;;;;;;1592355;73;2105;-56
2021/03/13 07:59:52;;;;;;;;;;;24.90;34.30;;;;;;1588744;73;820;-57
2021/03/13 08:01:54;;;;;;;;;;;24.80;33.30;;;;;;1603759;73;1151;-56
2021/03/13 08:03:56;;;;;;;;;;;24.80;33.60;;;;;;1585395;73;812;-56
2021/03/13 08:05:58;;;;;;;;;;;24.70;33.70;;;;;;1599094;73;1925;-56
2021/03/13 08:08:06;;;;;;;;;;;24.70;33.70;;;;;;1601766;73;854;-56
2021/03/13 08:10:05;;;;;;;;;;;24.60;33.80;;;;;;1590743;73;1420;-56
2021/03/13 08:12:08;;;;;;;;;;;24.60;33.70;;;;;;1603150;73;1279;-56
2021/03/13 08:14:10;;;;;;;;;;;24.50;33.80;;;;;;1598911;73;776;-57
2021/03/13 08:16:12;;;;;;;;;;;24.50;33.80;;;;;;1598990;73;826;-56
2021/03/13 08:18:33;;;;;;;;;;;24.40;33.80;;;;;;1588251;73;800;-58
2021/03/13 08:20:35;;;;;;;;;;;24.40;33.90;;;;;;1584169;73;772;-57
2021/03/13 08:22:38;;;;;;;;;;;24.30;34.30;;;;;;1600269;73;1139;-56
2021/03/13 08:24:41;;;;;;;;;;;24.30;34.40;;;;;;1598336;73;789;-57
2021/03/13 08:26:59;;;;;;;;;;;24.20;34.00;;;;;;1597199;73;1925;-57
2021/03/13 08:29:01;;;;;;;;;;;24.20;32.00;;;;;;1597414;73;844;-56
2021/03/13 08:31:10;;;;;;;;;;;24.10;32.30;;;;;;1596511;73;753;-57
2021/03/13 08:33:12;;;;;;;;;;;24.00;32.20;;;;;;1592063;73;1846;-57
2021/03/13 08:35:14;;;;;;;;;;;24.00;32.30;;;;;;1594114;73;781;-57
2021/03/13 08:37:20;;;;;;;;;;;23.90;30.40;;;;;;1593554;73;796;-57
2021/03/13 08:39:23;;;;;;;;;;;23.80;29.60;;;;;;1588845;73;756;-57
2021/03/13 08:41:44;;;;;;;;;;;23.60;28.80;;;;;;1593923;73;1143;-59
2021/03/13 08:43:49;;;;;;;;;;;23.60;28.90;;;;;;1601376;73;876;-57
2021/03/13 08:45:50;;;;;;;;;;;23.60;29.40;;;;;;1595950;73;1919;-57
2021/03/13 08:47:52;;;;;;;;;;;23.60;29.70;;;;;;1605633;73;833;-56
2021/03/13 08:49:54;;;;;;;;;;;23.60;29.80;;;;;;1608334;73;716;-56
2021/03/13 08:52:04;;;;;;;;;;;23.60;27.70;;;;;;1598451;73;1127;-56
2021/03/13 08:54:06;;;;;;;;;;;23.40;27.80;;;;;;1582115;73;730;-57
2021/03/13 08:56:09;;;;;;;;;;;23.40;27.20;;;;;;1600684;73;858;-57
2021/03/13 08:58:12;;;;;;;;;;;23.30;27.40;;;;;;1581284;73;1741;-57
2021/03/13 09:00:16;;;;;;;;;;;23.30;27.80;;;;;;1564053;74;1172;-55
2021/03/13 09:02:18;;;;;;;;;;;23.30;27.70;;;;;;1593699;73;1124;-56
2021/03/13 09:04:21;;;;;;;;;;;23.30;27.80;;;;;;1587462;73;778;-56
2021/03/13 09:06:23;;;;;;;;;;;23.40;27.90;;;;;;1585551;73;1925;-57
2021/03/13 09:08:25;;;;;;;;;;;23.30;28.00;;;;;;1590912;73;788;-57
2021/03/13 09:10:29;;;;;;;;;;;23.30;28.50;;;;;;1583188;73;752;-57
2021/03/13 09:12:33;;;;;;;;;;;23.30;29.10;;;;;;1591430;73;1164;-56
2021/03/13 09:14:36;;;;;;;;;;;23.30;28.90;;;;;;1586817;73;654;-57
2021/03/13 09:16:39;;;;;;;;;;;23.30;27.90;;;;;;1598395;73;1051;-56
2021/03/13 09:18:42;;;;;;;;;;;23.20;28.00;;;;;;1590600;73;859;-55
2021/03/13 09:20:44;;;;;;;;;;;23.20;27.60;;;;;;1602292;73;2153;-56
2021/03/13 09:22:47;;;;;;;;;;;23.10;27.60;;;;;;1580711;71;3542;-58
2021/03/13 09:24:57;;;;;;;;;;;23.10;27.70;;;;;;1561407;74;731;-59
2021/03/13 09:26:59;;;;;;;;;;;23.10;27.60;;;;;;1559011;74;1930;-59
2021/03/13 09:29:01;;;;;;;;;;;23.10;27.80;;;;;;1533200;75;679;-59
2021/03/13 09:31:03;;;;;;;;;;;23.10;27.90;;;;;;1535504;75;734;-57
2021/03/13 09:33:05;;;;;;;;;;;23.10;27.50;;;;;;1562584;74;1212;-55
2021/03/13 09:35:07;;;;;;;;;;;23.00;27.30;;;;;;1567705;74;673;-59
2021/03/13 09:37:11;;;;;;;;;;;23.10;27.70;;;;;;1561740;74;764;-59
2021/03/13 09:39:14;;;;;;;;;;;23.10;28.10;;;;;;1540804;75;1795;-57
2021/03/13 09:41:15;;;;;;;;;;;23.00;28.10;;;;;;1539348;76;1131;-58
2021/03/13 09:43:17;;;;;;;;;;;23.00;27.60;;;;;;1577497;74;756;-57
2021/03/13 09:45:20;;;;;;;;;;;22.90;27.70;;;;;;1528281;75;805;-57
2021/03/13 09:47:28;;;;;;;;;;;22.90;28.00;;;;;;1590488;73;1915;-56
2021/03/13 09:49:27;;;;;;;;;;;22.90;27.50;;;;;;1605055;73;959;-59
2021/03/13 09:51:29;;;;;;;;;;;22.90;28.40;;;;;;1587659;73;1150;-58
2021/03/13 09:53:31;;;;;;;;;;;23.00;28.60;;;;;;1585124;73;797;-59
2021/03/13 09:55:33;;;;;;;;;;;23.00;28.20;;;;;;1589515;73;800;-58
2021/03/13 09:57:35;;;;;;;;;;;23.00;28.10;;;;;;1592484;73;805;-57
2021/03/13 09:59:37;;;;;;;;;;;23.00;27.30;;;;;;1588104;73;867;-56
2021/03/13 10:01:39;;;;;;;;;;;23.00;27.50;;;;;;1597078;73;1150;-58
2021/03/13 10:03:41;;;;;;;;;;;22.90;28.10;;;;;;1586556;73;777;-58
2021/03/13 10:05:43;;;;;;;;;;;23.00;28.80;;;;;;1588836;73;1922;-57
2021/03/13 10:07:46;;;;;;;;;;;22.90;28.20;;;;;;1582327;73;862;-58
2021/03/13 10:09:55;;;;;;;;;;;22.90;28.20;;;;;;1587762;73;799;-57
2021/03/13 10:11:58;;;;;;;;;;;22.90;28.30;;;;;;1589626;73;1128;-56
2021/03/13 10:14:00;;;;;;;;;;;22.90;27.80;;;;;;1578054;73;696;-57
2021/03/13 10:16:02;;;;;;;;;;;22.80;28.30;;;;;;1585969;73;773;-57
2021/03/13 10:18:10;;;;;;;;;;;22.80;28.70;;;;;;1597041;73;802;-57
2021/03/13 10:20:13;;;;;;;;;;;22.80;29.10;;;;;;1602438;73;804;-60
2021/03/13 10:22:16;;;;;;;;;;;22.90;29.60;;;;;;1598660;73;1129;-54
2021/03/13 10:24:18;;;;;;;;;;;22.90;30.00;;;;;;1603519;73;961;-58
2021/03/13 10:26:20;;;;;;;;;;;22.90;30.20;;;;;;1602200;73;1914;-55
2021/03/13 10:28:23;;;;;;;;;;;23.00;30.20;;;;;;1598400;73;797;-57
2021/03/13 10:30:26;;;;;;;;;;;23.00;30.80;;;;;;1597099;73;1991;-59
2021/03/13 10:32:29;;;;;;;;;;;22.90;31.20;;;;;;1611721;73;1140;-57
2021/03/13 10:34:37;;;;;;;;;;;22.90;31.40;;;;;;1598147;73;701;-60
2021/03/13 10:36:42;;;;;;;;;;;22.90;31.70;;;;;;1603841;73;809;-60
2021/03/13 10:38:46;;;;;;;;;;;22.90;31.60;;;;;;1599494;73;826;-57
2021/03/13 10:40:49;;;;;;;;;;;23.10;31.60;;;;;;1608287;73;1879;-58
2021/03/13 10:42:51;;;;;;;;;;;23.10;31.40;;;;;;1602199;73;1113;-57
2021/03/13 10:44:53;;;;;;;;;;;23.20;31.40;;;;;;1591558;73;783;-56
2021/03/13 10:46:55;;;;;;;;;;;23.10;32.50;;;;;;1595192;73;1921;-56
2021/03/13 10:49:01;;;;;;;;;;;23.20;32.30;;;;;;1586329;73;669;-54
2021/03/13 10:51:03;;;;;;;;;;;23.20;32.40;;;;;;1587780;73;764;-53
2021/03/13 10:53:23;;;;;;;;;;;23.30;32.50;;;;;;1586616;73;1128;-52
2021/03/13 10:55:38;;;;;;;;;;;23.20;32.30;;;;;;1580553;73;759;-54
2021/03/13 10:57:42;;;;;;;;;;;23.40;32.30;;;;;;1597947;73;776;-56
2021/03/13 10:59:44;;;;;;;;;;;23.30;32.30;;;;;;1597972;73;1125;-56
2021/03/13 11:01:46;;;;;;;;;;;23.40;32.30;;;;;;1595036;73;1141;-53
2021/03/13 11:03:49;;;;;;;;;;;23.30;32.20;;;;;;1596542;73;672;-56
2021/03/13 11:05:51;;;;;;;;;;;23.30;32.30;;;;;;1597481;73;744;-56
2021/03/13 11:07:53;;;;;;;;;;;23.20;32.20;;;;;;1596310;73;1897;-56
2021/03/13 11:09:55;;;;;;;;;;;23.20;32.40;;;;;;1589263;73;823;-55
2021/03/13 11:11:57;;;;;;;;;;;23.20;32.70;;;;;;1598597;73;1176;-56
2021/03/13 11:13:59;;;;;;;;;;;23.10;33.00;;;;;;1595619;73;694;-56
2021/03/13 11:16:01;;;;;;;;;;;23.00;33.10;;;;;;1594910;73;757;-56
2021/03/13 11:18:03;;;;;;;;;;;23.00;33.30;;;;;;1590184;73;824;-56
2021/03/13 11:20:06;;;;;;;;;;;23.00;33.40;;;;;;1595466;73;838;-56
2021/03/13 11:22:10;;;;;;;;;;;23.00;33.60;;;;;;1598281;73;1102;-56
2021/03/13 11:24:12;;;;;;;;;;;22.90;33.70;;;;;;1589846;73;1678;-55
2021/03/13 11:26:14;;;;;;;;;;;23.00;33.70;;;;;;1604040;73;1946;-54
2021/03/13 11:28:17;;;;;;;;;;;22.90;33.80;;;;;;1595203;73;805;-55
2021/03/13 11:30:19;;;;;;;;;;;22.90;33.90;;;;;;1580505;73;791;-56
2021/03/13 11:32:21;;;;;;;;;;;22.90;33.90;;;;;;1591765;73;1128;-56
2021/03/13 11:34:23;;;;;;;;;;;23.10;34.10;;;;;;1585296;73;1083;-53
2021/03/13 11:36:25;;;;;;;;;;;23.00;34.00;;;;;;1598613;73;825;-56
2021/03/13 11:38:27;;;;;;;;;;;23.00;34.00;;;;;;1598095;73;1078;-56
2021/03/13 11:40:29;;;;;;;;;;;23.00;34.00;;;;;;1601005;73;1097;-53
2021/03/13 11:42:31;;;;;;;;;;;23.00;34.00;;;;;;1599840;73;1140;-53
2021/03/13 11:44:33;;;;;;;;;;;23.00;34.00;;;;;;1589138;73;895;-55
2021/03/13 11:46:35;;;;;;;;;;;23.00;34.00;;;;;;1585977;73;1916;-56
2021/03/13 11:48:37;;;;;;;;;;;23.10;34.20;;;;;;1592688;73;787;-56
2021/03/13 11:50:39;;;;;;;;;;;23.00;34.10;;;;;;1576738;73;709;-53
2021/03/13 11:52:41;;;;;;;;;;;23.00;34.10;;;;;;1585698;73;1138;-57
2021/03/13 11:54:43;;;;;;;;;;;23.00;34.20;;;;;;1599523;73;844;-55
2021/03/13 11:56:45;;;;;;;;;;;23.10;34.90;;;;;;1595054;73;714;-56
2021/03/13 11:58:47;;;;;;;;;;;23.10;35.00;;;;;;1589710;73;826;-55
2021/03/13 12:00:51;;;;;;;;;;;23.20;35.20;;;;;;1592230;73;728;-56
2021/03/13 12:02:53;;;;;;;;;;;23.20;35.40;;;;;;1584177;73;1136;-57
2021/03/13 12:04:55;;;;;;;;;;;23.20;35.30;;;;;;1582662;73;850;-57
2021/03/13 12:06:57;;;;;;;;;;;23.20;35.30;;;;;;1583343;72;1921;-57
2021/03/13 12:08:59;;;;;;;;;;;23.20;35.20;;;;;;1592479;73;1107;-57
2021/03/13 12:11:01;;;;;;;;;;;23.30;35.20;;;;;;1585327;73;712;-59
2021/03/13 12:13:03;;;;;;;;;;;23.30;35.30;;;;;;1580574;73;1114;-60
2021/03/13 12:15:09;;;;;;;;;;;23.30;35.30;;;;;;1584247;73;651;-59
2021/03/13 12:17:13;;;;;;;;;;;23.30;35.70;;;;;;1591711;73;733;-59